sensor_id;sensor_type;location;lat;lon;timestamp;pressure;altitude;pressure_sealevel;temperature;humidity
52535;BME280;38443;53.164;5.802;2023-08-08T00:00:15;101356.25;;;13.43;100.00
52535;BME280;38443;53.164;5.802;2023-08-08T00:02:41;101360.00;;;13.39;100.00
52535;BME280;38443;53.164;5.802;2023-08-08T00:05:06;101368.19;;;13.34;100.00
52535;BME280;38443;53.164;5.802;2023-08-08T00:07:32;101371.03;;;13.30;100.00
52535;BME280;38443;53.164;5.802;2023-08-08T00:09:57;101360.41;;;13.25;100.00
52535;BME280;38443;53.164;5.802;2023-08-08T00:12:23;101366.84;;;13.20;100.00
52535;BME280;38443;53.164;5.802;2023-08-08T00:14:49;101359.81;;;13.15;100.00
52535;BME280;38443;53.164;5.802;2023-08-08T00:17:14;101359.94;;;13.11;100.00
52535;BME280;38443;53.164;5.802;2023-08-08T00:19:40;101360.09;;;13.06;100.00
52535;BME280;38443;53.164;5.802;2023-08-08T00:22:06;101365.66;;;13.00;100.00
52535;BME280;38443;53.164;5.802;2023-08-08T00:24:31;101366.69;;;12.96;100.00
52535;BME280;38443;53.164;5.802;2023-08-08T00:26:57;101358.84;;;12.88;100.00
52535;BME280;38443;53.164;5.802;2023-08-08T00:29:22;101356.31;;;12.84;100.00
52535;BME280;38443;53.164;5.802;2023-08-08T00:31:47;101360.94;;;12.78;100.00
52535;BME280;38443;53.164;5.802;2023-08-08T00:34:13;101356.56;;;12.74;100.00
52535;BME280;38443;53.164;5.802;2023-08-08T00:36:38;101362.06;;;12.71;100.00
52535;BME280;38443;53.164;5.802;2023-08-08T00:39:04;101354.91;;;12.70;100.00
52535;BME280;38443;53.164;5.802;2023-08-08T00:41:29;101350.53;;;12.68;100.00
52535;BME280;38443;53.164;5.802;2023-08-08T00:43:54;101349.69;;;12.66;100.00
52535;BME280;38443;53.164;5.802;2023-08-08T00:46:21;101361.31;;;12.66;100.00
52535;BME280;38443;53.164;5.802;2023-08-08T00:48:47;101356.88;;;12.65;100.00
52535;BME280;38443;53.164;5.802;2023-08-08T00:51:13;101346.16;;;12.64;100.00
52535;BME280;38443;53.164;5.802;2023-08-08T00:53:39;101353.38;;;12.62;100.00
52535;BME280;38443;53.164;5.802;2023-08-08T00:56:05;101350.78;;;12.58;100.00
52535;BME280;38443;53.164;5.802;2023-08-08T00:58:31;101348.19;;;12.55;100.00
52535;BME280;38443;53.164;5.802;2023-08-08T01:00:56;101346.50;;;12.53;100.00
52535;BME280;38443;53.164;5.802;2023-08-08T01:03:25;101345.69;;;12.49;100.00
52535;BME280;38443;53.164;5.802;2023-08-08T01:06:05;101344.03;;;12.45;100.00
52535;BME280;38443;53.164;5.802;2023-08-08T01:08:39;101340.50;;;12.43;100.00
52535;BME280;38443;53.164;5.802;2023-08-08T01:11:07;101334.31;;;12.41;100.00
52535;BME280;38443;53.164;5.802;2023-08-08T01:13:32;101336.09;;;12.41;100.00
52535;BME280;38443;53.164;5.802;2023-08-08T01:15:58;101334.31;;;12.41;100.00
52535;BME280;38443;53.164;5.802;2023-08-08T01:18:25;101330.72;;;12.41;100.00
52535;BME280;38443;53.164;5.802;2023-08-08T01:20:52;101333.41;;;12.41;100.00
52535;BME280;38443;53.164;5.802;2023-08-08T01:23:41;101328.03;;;12.41;100.00
52535;BME280;38443;53.164;5.802;2023-08-08T01:26:08;101331.69;;;12.38;100.00
52535;BME280;38443;53.164;5.802;2023-08-08T01:28:34;101328.13;;;12.37;100.00
52535;BME280;38443;53.164;5.802;2023-08-08T01:30:59;101323.75;;;12.35;100.00
52535;BME280;38443;53.164;5.802;2023-08-08T01:33:25;101326.47;;;12.33;100.00
52535;BME280;38443;53.164;5.802;2023-08-08T01:35:54;101329.19;;;12.32;100.00
52535;BME280;38443;53.164;5.802;2023-08-08T01:38:27;101323.84;;;12.30;100.00
52535;BME280;38443;53.164;5.802;2023-08-08T01:40:55;101323.97;;;12.27;100.00
52535;BME280;38443;53.164;5.802;2023-08-08T01:43:22;101325.72;;;12.28;100.00
52535;BME280;38443;53.164;5.802;2023-08-08T01:45:50;101326.63;;;12.29;100.00
52535;BME280;38443;53.164;5.802;2023-08-08T01:48:15;101322.19;;;12.26;100.00
52535;BME280;38443;53.164;5.802;2023-08-08T01:50:41;101318.63;;;12.26;100.00
52535;BME280;38443;53.164;5.802;2023-08-08T01:53:06;101314.13;;;12.26;100.00
52535;BME280;38443;53.164;5.802;2023-08-08T01:55:31;101316.78;;;12.28;100.00
52535;BME280;38443;53.164;5.802;2023-08-08T01:57:57;101314.09;;;12.28;100.00
52535;BME280;38443;53.164;5.802;2023-08-08T02:00:23;101306.00;;;12.29;100.00
52535;BME280;38443;53.164;5.802;2023-08-08T02:02:48;101296.94;;;12.33;100.00
52535;BME280;38443;53.164;5.802;2023-08-08T02:05:14;101301.31;;;12.36;100.00
52535;BME280;38443;53.164;5.802;2023-08-08T02:07:39;101302.09;;;12.41;100.00
52535;BME280;38443;53.164;5.802;2023-08-08T02:10:05;101290.34;;;12.45;100.00
52535;BME280;38443;53.164;5.802;2023-08-08T02:12:30;101291.16;;;12.47;100.00
52535;BME280;38443;53.164;5.802;2023-08-08T02:14:57;101295.56;;;12.50;100.00
52535;BME280;38443;53.164;5.802;2023-08-08T02:17:22;101292.00;;;12.49;100.00
52535;BME280;38443;53.164;5.802;2023-08-08T02:19:47;101299.13;;;12.50;100.00
52535;BME280;38443;53.164;5.802;2023-08-08T02:22:13;101290.16;;;12.51;100.00
52535;BME280;38443;53.164;5.802;2023-08-08T02:24:38;101285.50;;;12.56;100.00
52535;BME280;38443;53.164;5.802;2023-08-08T02:27:03;101287.09;;;12.64;100.00
52535;BME280;38443;53.164;5.802;2023-08-08T02:29:29;101290.44;;;12.70;100.00
52535;BME280;38443;53.164;5.802;2023-08-08T02:31:55;101286.72;;;12.74;100.00
52535;BME280;38443;53.164;5.802;2023-08-08T02:34:20;101286.53;;;12.81;100.00
52535;BME280;38443;53.164;5.802;2023-08-08T02:36:45;101289.19;;;12.82;100.00
52535;BME280;38443;53.164;5.802;2023-08-08T02:39:11;101275.78;;;12.81;100.00
52535;BME280;38443;53.164;5.802;2023-08-08T02:41:36;101279.47;;;12.78;100.00
52535;BME280;38443;53.164;5.802;2023-08-08T02:44:02;101270.63;;;12.74;100.00
52535;BME280;38443;53.164;5.802;2023-08-08T02:46:27;101268.91;;;12.72;100.00
52535;BME280;38443;53.164;5.802;2023-08-08T02:48:52;101272.53;;;12.71;100.00
52535;BME280;38443;53.164;5.802;2023-08-08T02:51:18;101270.78;;;12.70;100.00
52535;BME280;38443;53.164;5.802;2023-08-08T02:53:43;101256.56;;;12.66;100.00
52535;BME280;38443;53.164;5.802;2023-08-08T02:56:08;101251.28;;;12.63;100.00
52535;BME280;38443;53.164;5.802;2023-08-08T02:58:34;101254.94;;;12.61;100.00
52535;BME280;38443;53.164;5.802;2023-08-08T03:00:59;101252.38;;;12.57;100.00
52535;BME280;38443;53.164;5.802;2023-08-08T03:03:25;101252.38;;;12.57;100.00
52535;BME280;38443;53.164;5.802;2023-08-08T03:05:50;101255.97;;;12.56;100.00
52535;BME280;38443;53.164;5.802;2023-08-08T03:08:15;101250.78;;;12.50;100.00
52535;BME280;38443;53.164;5.802;2023-08-08T03:10:41;101239.41;;;12.42;100.00
52535;BME280;38443;53.164;5.802;2023-08-08T03:13:06;101253.00;;;12.36;100.00
52535;BME280;38443;53.164;5.802;2023-08-08T03:15:32;101256.69;;;12.33;100.00
52535;BME280;38443;53.164;5.802;2023-08-08T03:17:57;101254.97;;;12.31;100.00
52535;BME280;38443;53.164;5.802;2023-08-08T03:20:23;101254.00;;;12.33;100.00
52535;BME280;38443;53.164;5.802;2023-08-08T03:22:48;101254.81;;;12.35;100.00
52535;BME280;38443;53.164;5.802;2023-08-08T03:25:13;101253.81;;;12.40;100.00
52535;BME280;38443;53.164;5.802;2023-08-08T03:27:38;101252.63;;;12.48;100.00
52535;BME280;38443;53.164;5.802;2023-08-08T03:30:04;101255.97;;;12.56;100.00
52535;BME280;38443;53.164;5.802;2023-08-08T03:32:30;101251.34;;;12.62;100.00
52535;BME280;38443;53.164;5.802;2023-08-08T03:34:55;101250.41;;;12.63;100.00
52535;BME280;38443;53.164;5.802;2023-08-08T03:37:20;101260.13;;;12.67;100.00
52535;BME280;38443;53.164;5.802;2023-08-08T03:39:46;101258.25;;;12.69;100.00
52535;BME280;38443;53.164;5.802;2023-08-08T03:42:11;101240.31;;;12.71;100.00
52535;BME280;38443;53.164;5.802;2023-08-08T03:44:36;101244.78;;;12.70;100.00
52535;BME280;38443;53.164;5.802;2023-08-08T03:47:02;101243.03;;;12.69;100.00
52535;BME280;38443;53.164;5.802;2023-08-08T03:49:27;101244.06;;;12.65;100.00
52535;BME280;38443;53.164;5.802;2023-08-08T03:51:53;101234.41;;;12.60;100.00
52535;BME280;38443;53.164;5.802;2023-08-08T03:54:18;101231.03;;;12.53;100.00
52535;BME280;38443;53.164;5.802;2023-08-08T03:56:43;101241.06;;;12.46;100.00
52535;BME280;38443;53.164;5.802;2023-08-08T03:59:09;101243.06;;;12.40;100.00
52535;BME280;38443;53.164;5.802;2023-08-08T04:01:35;101245.00;;;12.34;100.00
52535;BME280;38443;53.164;5.802;2023-08-08T04:04:03;101235.34;;;12.29;100.00
52535;BME280;38443;53.164;5.802;2023-08-08T04:06:29;101231.03;;;12.23;100.00
52535;BME280;38443;53.164;5.802;2023-08-08T04:08:54;101223.94;;;12.21;100.00
52535;BME280;38443;53.164;5.802;2023-08-08T04:11:20;101228.59;;;12.15;100.00
52535;BME280;38443;53.164;5.802;2023-08-08T04:13:45;101226.81;;;12.14;100.00
52535;BME280;38443;53.164;5.802;2023-08-08T04:16:11;101230.47;;;12.12;100.00
52535;BME280;38443;53.164;5.802;2023-08-08T04:18:36;101226.09;;;12.09;100.00
52535;BME280;38443;53.164;5.802;2023-08-08T04:21:01;101224.38;;;12.07;100.00
52535;BME280;38443;53.164;5.802;2023-08-08T04:23:27;101221.72;;;12.05;100.00
52535;BME280;38443;53.164;5.802;2023-08-08T04:25:53;101230.56;;;12.09;100.00
52535;BME280;38443;53.164;5.802;2023-08-08T04:28:18;101233.25;;;12.09;100.00
52535;BME280;38443;53.164;5.802;2023-08-08T04:30:44;101237.66;;;12.11;100.00
52535;BME280;38443;53.164;5.802;2023-08-08T04:33:09;101234.03;;;12.12;100.00
52535;BME280;38443;53.164;5.802;2023-08-08T04:35:35;101230.50;;;12.10;100.00
52535;BME280;38443;53.164;5.802;2023-08-08T04:38:00;101235.03;;;12.08;100.00
52535;BME280;38443;53.164;5.802;2023-08-08T04:40:25;101228.03;;;12.03;100.00
52535;BME280;38443;53.164;5.802;2023-08-08T04:42:51;101228.16;;;12.00;100.00
52535;BME280;38443;53.164;5.802;2023-08-08T04:45:16;101230.88;;;11.98;100.00
52535;BME280;38443;53.164;5.802;2023-08-08T04:47:42;101231.81;;;11.97;100.00
52535;BME280;38443;53.164;5.802;2023-08-08T04:50:09;101230.78;;;12.01;100.00
52535;BME280;38443;53.164;5.802;2023-08-08T04:52:35;101224.31;;;12.08;100.00
52535;BME280;38443;53.164;5.802;2023-08-08T04:55:00;101218.75;;;12.14;100.00
52535;BME280;38443;53.164;5.802;2023-08-08T04:57:25;101211.34;;;12.23;100.00
52535;BME280;38443;53.164;5.802;2023-08-08T04:59:51;101211.94;;;12.32;100.00
52535;BME280;38443;53.164;5.802;2023-08-08T05:02:16;101207.34;;;12.37;100.00
52535;BME280;38443;53.164;5.802;2023-08-08T05:04:41;101205.38;;;12.43;100.00
52535;BME280;38443;53.164;5.802;2023-08-08T05:07:07;101206.13;;;12.48;100.00
52535;BME280;38443;53.164;5.802;2023-08-08T05:09:32;101201.50;;;12.53;100.00
52535;BME280;38443;53.164;5.802;2023-08-08T05:11:58;101200.41;;;12.58;100.00
52535;BME280;38443;53.164;5.802;2023-08-08T05:14:23;101206.47;;;12.65;100.00
52535;BME280;38443;53.164;5.802;2023-08-08T05:16:48;101190.25;;;12.68;100.00
52535;BME280;38443;53.164;5.802;2023-08-08T05:19:14;101196.34;;;12.73;100.00
52535;BME280;38443;53.164;5.802;2023-08-08T05:21:39;101204.25;;;12.78;100.00
52535;BME280;38443;53.164;5.802;2023-08-08T05:24:05;101205.03;;;12.82;100.00
52535;BME280;38443;53.164;5.802;2023-08-08T05:26:30;101195.06;;;12.85;100.00
52535;BME280;38443;53.164;5.802;2023-08-08T05:28:56;101189.63;;;12.87;100.00
52535;BME280;38443;53.164;5.802;2023-08-08T05:31:21;101199.31;;;12.92;100.00
52535;BME280;38443;53.164;5.802;2023-08-08T05:33:48;101199.03;;;13.00;100.00
52535;BME280;38443;53.164;5.802;2023-08-08T05:36:14;101194.44;;;13.04;100.00
52535;BME280;38443;53.164;5.802;2023-08-08T05:38:39;101198.00;;;13.04;100.00
52535;BME280;38443;53.164;5.802;2023-08-08T05:41:06;101189.03;;;13.05;100.00
52535;BME280;38443;53.164;5.802;2023-08-08T05:43:31;101192.34;;;13.13;100.00
52535;BME280;38443;53.164;5.802;2023-08-08T05:45:56;101195.81;;;13.17;100.00
52535;BME280;38443;53.164;5.802;2023-08-08T05:48:22;101193.81;;;13.22;100.00
52535;BME280;38443;53.164;5.802;2023-08-08T05:50:47;101197.22;;;13.27;100.00
52535;BME280;38443;53.164;5.802;2023-08-08T05:53:12;101187.16;;;13.34;100.00
52535;BME280;38443;53.164;5.802;2023-08-08T05:55:40;101200.31;;;13.43;100.00
52535;BME280;38443;53.164;5.802;2023-08-08T05:58:06;101192.94;;;13.48;100.00
52535;BME280;38443;53.164;5.802;2023-08-08T06:00:31;101195.53;;;13.51;100.00
52535;BME280;38443;53.164;5.802;2023-08-08T06:02:57;101198.94;;;13.55;100.00
52535;BME280;38443;53.164;5.802;2023-08-08T06:05:22;101190.75;;;13.60;100.00
52535;BME280;38443;53.164;5.802;2023-08-08T06:07:49;101199.59;;;13.63;100.00
52535;BME280;38443;53.164;5.802;2023-08-08T06:10:14;101200.31;;;13.67;100.00
52535;BME280;38443;53.164;5.802;2023-08-08T06:12:40;101206.44;;;13.72;100.00
52535;BME280;38443;53.164;5.802;2023-08-08T06:15:06;101203.69;;;13.73;100.00
52535;BME280;38443;53.164;5.802;2023-08-08T06:17:32;101199.00;;;13.79;100.00
52535;BME280;38443;53.164;5.802;2023-08-08T06:19:57;101191.69;;;13.82;100.00
52535;BME280;38443;53.164;5.802;2023-08-08T06:22:23;101201.31;;;13.89;100.00
52535;BME280;38443;53.164;5.802;2023-08-08T06:24:49;101198.25;;;13.99;100.00
52535;BME280;38443;53.164;5.802;2023-08-08T06:27:14;101204.31;;;14.05;100.00
52535;BME280;38443;53.164;5.802;2023-08-08T06:29:39;101199.56;;;14.12;100.00
52535;BME280;38443;53.164;5.802;2023-08-08T06:32:05;101203.69;;;14.21;100.00
52535;BME280;38443;53.164;5.802;2023-08-08T06:34:31;101192.34;;;14.36;100.00
52535;BME280;38443;53.164;5.802;2023-08-08T06:36:56;101190.84;;;14.51;100.00
52535;BME280;38443;53.164;5.802;2023-08-08T06:39:21;101184.59;;;14.94;100.00
52535;BME280;38443;53.164;5.802;2023-08-08T06:41:47;101180.56;;;15.05;100.00
52535;BME280;38443;53.164;5.802;2023-08-08T06:44:12;101171.13;;;15.15;100.00
52535;BME280;38443;53.164;5.802;2023-08-08T06:46:38;101173.56;;;15.21;100.00
52535;BME280;38443;53.164;5.802;2023-08-08T06:49:03;101166.38;;;15.22;100.00
52535;BME280;38443;53.164;5.802;2023-08-08T06:51:29;101166.28;;;15.23;100.00
52535;BME280;38443;53.164;5.802;2023-08-08T06:53:55;101172.09;;;15.34;100.00
52535;BME280;38443;53.164;5.802;2023-08-08T06:56:20;101174.47;;;15.42;100.00
52535;BME280;38443;53.164;5.802;2023-08-08T06:58:46;101175.66;;;15.35;100.00
52535;BME280;38443;53.164;5.802;2023-08-08T07:01:11;101171.28;;;15.32;100.00
52535;BME280;38443;53.164;5.802;2023-08-08T07:03:37;101175.88;;;15.30;100.00
52535;BME280;38443;53.164;5.802;2023-08-08T07:06:03;101172.84;;;15.38;100.00
52535;BME280;38443;53.164;5.802;2023-08-08T07:08:28;101178.03;;;15.43;100.00
52535;BME280;38443;53.164;5.802;2023-08-08T07:10:56;101160.38;;;15.35;100.00
52535;BME280;38443;53.164;5.802;2023-08-08T07:13:21;101164.97;;;15.33;100.00
52535;BME280;38443;53.164;5.802;2023-08-08T07:15:47;101170.38;;;15.33;100.00
52535;BME280;38443;53.164;5.802;2023-08-08T07:18:12;101175.59;;;15.36;100.00
52535;BME280;38443;53.164;5.802;2023-08-08T07:20:37;101167.47;;;15.38;100.00
52535;BME280;38443;53.164;5.802;2023-08-08T07:23:04;101161.03;;;15.41;100.00
52535;BME280;38443;53.164;5.802;2023-08-08T07:25:29;101161.72;;;15.46;100.00
52535;BME280;38443;53.164;5.802;2023-08-08T07:27:55;101165.06;;;15.51;100.00
52535;BME280;38443;53.164;5.802;2023-08-08T07:30:20;101149.84;;;15.50;100.00
52535;BME280;38443;53.164;5.802;2023-08-08T07:32:46;101159.56;;;15.54;100.00
52535;BME280;38443;53.164;5.802;2023-08-08T07:35:11;101165.75;;;15.56;100.00
52535;BME280;38443;53.164;5.802;2023-08-08T07:37:36;101164.78;;;15.57;100.00
52535;BME280;38443;53.164;5.802;2023-08-08T07:40:02;101163.72;;;15.61;100.00
52535;BME280;38443;53.164;5.802;2023-08-08T07:42:29;101171.75;;;15.63;100.00
52535;BME280;38443;53.164;5.802;2023-08-08T07:44:54;101167.91;;;15.68;100.00
52535;BME280;38443;53.164;5.802;2023-08-08T07:47:20;101167.38;;;15.60;100.00
52535;BME280;38443;53.164;5.802;2023-08-08T07:49:45;101165.13;;;15.49;100.00
52535;BME280;38443;53.164;5.802;2023-08-08T07:52:11;101163.53;;;15.45;100.00
52535;BME280;38443;53.164;5.802;2023-08-08T07:54:36;101165.19;;;15.89;100.00
52535;BME280;38443;53.164;5.802;2023-08-08T07:57:01;101158.38;;;16.20;100.00
52535;BME280;38443;53.164;5.802;2023-08-08T07:59:27;101160.91;;;16.23;100.00
52535;BME280;38443;53.164;5.802;2023-08-08T08:01:52;101161.72;;;16.06;100.00
52535;BME280;38443;53.164;5.802;2023-08-08T08:04:18;101162.78;;;15.83;100.00
52535;BME280;38443;53.164;5.802;2023-08-08T08:06:43;101167.38;;;15.81;100.00
52535;BME280;38443;53.164;5.802;2023-08-08T08:09:09;101167.09;;;15.87;100.00
52535;BME280;38443;53.164;5.802;2023-08-08T08:11:34;101172.13;;;15.94;100.00
52535;BME280;38443;53.164;5.802;2023-08-08T08:13:59;101161.19;;;15.98;100.00
52535;BME280;38443;53.164;5.802;2023-08-08T08:16:25;101153.00;;;15.99;100.00
52535;BME280;38443;53.164;5.802;2023-08-08T08:18:50;101148.28;;;16.60;100.00
52535;BME280;38443;53.164;5.802;2023-08-08T08:21:15;101149.25;;;16.95;100.00
52535;BME280;38443;53.164;5.802;2023-08-08T08:23:43;101144.91;;;17.10;100.00
52535;BME280;38443;53.164;5.802;2023-08-08T08:26:08;101134.94;;;17.28;100.00
52535;BME280;38443;53.164;5.802;2023-08-08T08:28:33;101140.03;;;17.34;100.00
52535;BME280;38443;53.164;5.802;2023-08-08T08:31:04;101145.28;;;17.37;100.00
52535;BME280;38443;53.164;5.802;2023-08-08T08:33:30;101136.50;;;17.83;100.00
52535;BME280;38443;53.164;5.802;2023-08-08T08:35:55;101125.91;;;18.11;100.00
52535;BME280;38443;53.164;5.802;2023-08-08T08:38:20;101148.00;;;17.70;100.00
52535;BME280;38443;53.164;5.802;2023-08-08T08:40:46;101136.53;;;17.32;100.00
52535;BME280;38443;53.164;5.802;2023-08-08T08:43:13;101145.59;;;17.13;100.00
52535;BME280;38443;53.164;5.802;2023-08-08T08:45:42;101140.13;;;17.15;100.00
52535;BME280;38443;53.164;5.802;2023-08-08T08:48:09;101140.97;;;17.50;100.00
52535;BME280;38443;53.164;5.802;2023-08-08T08:50:36;101134.03;;;17.96;100.00
52535;BME280;38443;53.164;5.802;2023-08-08T08:53:03;101132.41;;;18.25;100.00
52535;BME280;38443;53.164;5.802;2023-08-08T08:55:30;101134.91;;;18.60;100.00
52535;BME280;38443;53.164;5.802;2023-08-08T08:57:55;101125.19;;;18.56;100.00
52535;BME280;38443;53.164;5.802;2023-08-08T09:00:20;101134.28;;;17.91;100.00
52535;BME280;38443;53.164;5.802;2023-08-08T09:02:46;101133.25;;;17.25;100.00
52535;BME280;38443;53.164;5.802;2023-08-08T09:05:12;101144.34;;;16.86;100.00
52535;BME280;38443;53.164;5.802;2023-08-08T09:07:37;101147.72;;;16.53;100.00
52535;BME280;38443;53.164;5.802;2023-08-08T09:10:03;101133.28;;;16.90;100.00
52535;BME280;38443;53.164;5.802;2023-08-08T09:12:30;101146.72;;;17.44;100.00
52535;BME280;38443;53.164;5.802;2023-08-08T09:14:56;101138.22;;;18.01;100.00
52535;BME280;38443;53.164;5.802;2023-08-08T09:17:22;101135.72;;;17.98;100.00
52535;BME280;38443;53.164;5.802;2023-08-08T09:19:49;101140.69;;;17.72;100.00
52535;BME280;38443;53.164;5.802;2023-08-08T09:22:15;101144.63;;;17.49;100.00
52535;BME280;38443;53.164;5.802;2023-08-08T09:24:41;101131.06;;;17.67;100.00
52535;BME280;38443;53.164;5.802;2023-08-08T09:27:07;101137.34;;;17.67;100.00
52535;BME280;38443;53.164;5.802;2023-08-08T09:29:33;101147.56;;;17.45;100.00
52535;BME280;38443;53.164;5.802;2023-08-08T09:31:58;101138.06;;;17.20;100.00
52535;BME280;38443;53.164;5.802;2023-08-08T09:34:24;101154.72;;;16.93;100.00
52535;BME280;38443;53.164;5.802;2023-08-08T09:36:50;101150.88;;;16.80;100.00
52535;BME280;38443;53.164;5.802;2023-08-08T09:39:17;101150.69;;;16.85;100.00
52535;BME280;38443;53.164;5.802;2023-08-08T09:41:45;101141.56;;;17.05;100.00
52535;BME280;38443;53.164;5.802;2023-08-08T09:44:11;101142.19;;;17.10;100.00
52535;BME280;38443;53.164;5.802;2023-08-08T09:46:37;101126.59;;;17.15;100.00
52535;BME280;38443;53.164;5.802;2023-08-08T09:49:03;101120.00;;;17.03;100.00
52535;BME280;38443;53.164;5.802;2023-08-08T09:51:28;101169.53;;;17.04;100.00
52535;BME280;38443;53.164;5.802;2023-08-08T09:53:54;101161.44;;;17.21;100.00
52535;BME280;38443;53.164;5.802;2023-08-08T09:56:23;101153.72;;;17.48;100.00
52535;BME280;38443;53.164;5.802;2023-08-08T09:58:49;101157.34;;;17.65;100.00
52535;BME280;38443;53.164;5.802;2023-08-08T10:01:15;101171.47;;;17.70;100.00
52535;BME280;38443;53.164;5.802;2023-08-08T10:03:41;101168.56;;;17.57;100.00
52535;BME280;38443;53.164;5.802;2023-08-08T10:06:08;101172.06;;;17.59;100.00
52535;BME280;38443;53.164;5.802;2023-08-08T10:08:34;101164.22;;;17.88;100.00
52535;BME280;38443;53.164;5.802;2023-08-08T10:11:01;101171.03;;;18.12;100.00
52535;BME280;38443;53.164;5.802;2023-08-08T10:13:26;101164.97;;;18.07;100.00
52535;BME280;38443;53.164;5.802;2023-08-08T10:15:53;101165.59;;;18.12;100.00
52535;BME280;38443;53.164;5.802;2023-08-08T10:18:21;101162.44;;;18.04;100.00
52535;BME280;38443;53.164;5.802;2023-08-08T10:20:48;101159.94;;;17.84;100.00
52535;BME280;38443;53.164;5.802;2023-08-08T10:23:15;101166.38;;;17.81;100.00
52535;BME280;38443;53.164;5.802;2023-08-08T10:25:48;101167.41;;;17.79;100.00
52535;BME280;38443;53.164;5.802;2023-08-08T10:28:18;101173.97;;;18.08;100.00
52535;BME280;38443;53.164;5.802;2023-08-08T10:30:56;101159.31;;;18.28;100.00
52535;BME280;38443;53.164;5.802;2023-08-08T10:33:25;101172.56;;;18.01;100.00
52535;BME280;38443;53.164;5.802;2023-08-08T10:41:14;101165.19;;;17.87;100.00
52535;BME280;38443;53.164;5.802;2023-08-08T10:43:49;101163.06;;;17.76;100.00
52535;BME280;38443;53.164;5.802;2023-08-08T10:46:23;101171.75;;;17.65;100.00
52535;BME280;38443;53.164;5.802;2023-08-08T10:48:54;101163.63;;;17.48;100.00
52535;BME280;38443;53.164;5.802;2023-08-08T10:51:20;101166.53;;;17.45;100.00
52535;BME280;38443;53.164;5.802;2023-08-08T10:53:46;101167.91;;;17.69;100.00
52535;BME280;38443;53.164;5.802;2023-08-08T10:56:13;101162.78;;;17.98;100.00
52535;BME280;38443;53.164;5.802;2023-08-08T10:58:47;101170.31;;;18.09;100.00
52535;BME280;38443;53.164;5.802;2023-08-08T11:01:13;101170.31;;;18.25;100.00
52535;BME280;38443;53.164;5.802;2023-08-08T11:03:40;101163.25;;;18.38;100.00
52535;BME280;38443;53.164;5.802;2023-08-08T11:06:07;101165.94;;;18.06;100.00
52535;BME280;38443;53.164;5.802;2023-08-08T11:08:34;101163.56;;;18.16;100.00
52535;BME280;38443;53.164;5.802;2023-08-08T11:11:01;101164.13;;;18.23;100.00
52535;BME280;38443;53.164;5.802;2023-08-08T11:13:28;101173.47;;;18.33;100.00
52535;BME280;38443;53.164;5.802;2023-08-08T11:15:54;101172.41;;;18.51;100.00
52535;BME280;38443;53.164;5.802;2023-08-08T11:18:19;101170.94;;;18.46;100.00
52535;BME280;38443;53.164;5.802;2023-08-08T11:20:45;101180.03;;;18.29;100.00
52535;BME280;38443;53.164;5.802;2023-08-08T11:23:10;101176.91;;;17.87;100.00
52535;BME280;38443;53.164;5.802;2023-08-08T11:25:40;101177.53;;;17.75;100.00
52535;BME280;38443;53.164;5.802;2023-08-08T11:28:07;101163.84;;;17.78;100.00
52535;BME280;38443;53.164;5.802;2023-08-08T11:30:38;101161.41;;;18.07;100.00
52535;BME280;38443;53.164;5.802;2023-08-08T11:33:04;101158.63;;;18.40;100.00
52535;BME280;38443;53.164;5.802;2023-08-08T11:35:30;101154.91;;;18.73;100.00
52535;BME280;38443;53.164;5.802;2023-08-08T11:37:57;101156.53;;;19.07;100.00
52535;BME280;38443;53.164;5.802;2023-08-08T11:40:25;101144.47;;;19.27;100.00
52535;BME280;38443;53.164;5.802;2023-08-08T11:42:51;101148.75;;;19.46;100.00
52535;BME280;38443;53.164;5.802;2023-08-08T11:45:17;101144.69;;;19.39;100.00
52535;BME280;38443;53.164;5.802;2023-08-08T11:47:43;101158.34;;;19.23;100.00
52535;BME280;38443;53.164;5.802;2023-08-08T11:50:10;101166.63;;;18.73;100.00
52535;BME280;38443;53.164;5.802;2023-08-08T11:52:45;101158.16;;;18.64;100.00
52535;BME280;38443;53.164;5.802;2023-08-08T11:55:11;101167.44;;;18.28;100.00
52535;BME280;38443;53.164;5.802;2023-08-08T11:57:37;101167.88;;;18.20;100.00
52535;BME280;38443;53.164;5.802;2023-08-08T12:00:08;101159.72;;;18.36;100.00
52535;BME280;38443;53.164;5.802;2023-08-08T12:02:34;101168.13;;;18.31;100.00
52535;BME280;38443;53.164;5.802;2023-08-08T12:05:07;101172.75;;;18.13;100.00
52535;BME280;38443;53.164;5.802;2023-08-08T12:07:34;101172.56;;;18.01;100.00
52535;BME280;38443;53.164;5.802;2023-08-08T12:10:00;101147.78;;;18.08;100.00
52535;BME280;38443;53.164;5.802;2023-08-08T12:12:27;101162.91;;;18.12;100.00
52535;BME280;38443;53.164;5.802;2023-08-08T12:14:54;101173.00;;;17.93;100.00
52535;BME280;38443;53.164;5.802;2023-08-08T12:17:21;101179.59;;;17.70;100.00
52535;BME280;38443;53.164;5.802;2023-08-08T12:19:47;101174.44;;;17.65;100.00
52535;BME280;38443;53.164;5.802;2023-08-08T12:22:14;101174.28;;;17.68;100.00
52535;BME280;38443;53.164;5.802;2023-08-08T12:24:39;101192.31;;;17.52;100.00
52535;BME280;38443;53.164;5.802;2023-08-08T12:27:05;101175.97;;;17.71;100.00
52535;BME280;38443;53.164;5.802;2023-08-08T12:29:30;101164.72;;;17.96;100.00
52535;BME280;38443;53.164;5.802;2023-08-08T12:31:56;101166.91;;;18.21;100.00
52535;BME280;38443;53.164;5.802;2023-08-08T12:34:21;101188.06;;;18.14;100.00
52535;BME280;38443;53.164;5.802;2023-08-08T12:36:47;101184.19;;;18.03;100.00
52535;BME280;38443;53.164;5.802;2023-08-08T12:39:12;101182.63;;;17.81;100.00